createdAt,value
2023-04-22T00:01:45.953Z,12.18
2023-04-22T00:03:49.207Z,11.48
2023-04-22T00:05:52.338Z,12.75
2023-04-22T00:07:55.438Z,12.93
2023-04-22T00:09:58.539Z,14.73
2023-04-22T00:12:02.883Z,14.30
2023-04-22T00:14:06.456Z,14.45
2023-04-22T00:16:09.339Z,14.02
2023-04-22T00:18:14.295Z,13.35
2023-04-22T00:20:17.512Z,13.32
2023-04-22T00:22:20.458Z,13.98
2023-04-22T00:24:23.485Z,15.90
2023-04-22T00:26:26.727Z,14.60
2023-04-22T00:28:31.113Z,15.20
2023-04-22T00:30:34.433Z,14.43
2023-04-22T00:32:38.739Z,13.70
2023-04-22T00:34:41.671Z,14.63
2023-04-22T00:36:44.720Z,14.43
2023-04-22T00:38:52.826Z,13.23
2023-04-22T00:40:55.939Z,15.02
2023-04-22T00:43:00.220Z,14.45
2023-04-22T00:45:10.489Z,15.05
2023-04-22T00:47:13.769Z,14.57
2023-04-22T00:49:17.242Z,14.65
2023-04-22T00:51:20.192Z,14.90
2023-04-22T00:53:23.107Z,14.88
2023-04-22T00:55:26.442Z,14.43
2023-04-22T00:57:33.898Z,13.95
2023-04-22T00:59:37.222Z,12.88
2023-04-22T01:01:43.092Z,11.90
2023-04-22T01:03:48.563Z,11.80
2023-04-22T01:07:54.070Z,11.57
2023-04-22T01:09:58.227Z,11.93
2023-04-22T01:12:02.021Z,12.05
2023-04-22T01:14:05.608Z,11.60
2023-04-22T01:16:10.379Z,11.40
2023-04-22T01:18:15.607Z,11.95
2023-04-22T01:20:19.780Z,12.57
2023-04-22T01:22:24.371Z,13.10
2023-04-22T01:24:29.012Z,11.85
2023-04-22T01:26:32.638Z,12.10
2023-04-22T01:28:35.907Z,12.23
2023-04-22T01:30:39.622Z,13.82
2023-04-22T01:32:43.988Z,13.77
2023-04-22T01:34:46.903Z,14.80
2023-04-22T01:36:51.124Z,14.00
2023-04-22T01:38:54.833Z,12.97
2023-04-22T01:40:59.337Z,13.45
2023-04-22T01:43:02.437Z,14.30
2023-04-22T01:45:06.296Z,14.80
2023-04-22T01:47:09.194Z,15.05
2023-04-22T01:49:12.115Z,15.30
2023-04-22T01:51:15.268Z,14.65
2023-04-22T01:53:20.537Z,14.48
2023-04-22T01:55:23.560Z,15.43
2023-04-22T01:57:27.915Z,14.85
2023-04-22T01:59:31.104Z,15.93
2023-04-22T02:01:34.151Z,15.30
2023-04-22T02:03:37.782Z,14.75
2023-04-22T02:05:41.242Z,14.90
2023-04-22T02:07:44.567Z,15.95
2023-04-22T02:09:50.784Z,15.13
2023-04-22T02:11:53.773Z,16.27
2023-04-22T02:13:59.151Z,18.10
2023-04-22T02:16:02.086Z,19.25
2023-04-22T02:18:05.376Z,17.83
2023-04-22T02:20:14.114Z,18.55
2023-04-22T02:22:17.611Z,18.58
2023-04-22T02:24:20.742Z,18.85
2023-04-22T02:26:25.291Z,17.58
2023-04-22T02:28:28.101Z,18.38
2023-04-22T02:30:32.638Z,17.02
2023-04-22T02:32:37.164Z,16.13
2023-04-22T02:34:40.151Z,17.67
2023-04-22T02:36:43.032Z,17.50
2023-04-22T02:38:46.511Z,17.50
2023-04-22T02:40:51.111Z,17.13
2023-04-22T02:42:54.012Z,16.33
2023-04-22T02:44:57.907Z,14.52
2023-04-22T02:47:04.010Z,13.80
2023-04-22T02:49:07.143Z,13.75
2023-04-22T02:51:10.032Z,14.07
2023-04-22T02:53:13.004Z,13.48
2023-04-22T02:55:16.181Z,13.13
2023-04-22T02:57:19.190Z,13.18
2023-04-22T02:59:22.079Z,12.90
2023-04-22T03:01:25.314Z,12.55
2023-04-22T03:03:32.361Z,12.55
2023-04-22T03:05:35.814Z,11.68
2023-04-22T03:07:39.038Z,12.80
2023-04-22T03:09:42.433Z,14.57
2023-04-22T03:11:45.581Z,15.70
2023-04-22T03:13:48.607Z,15.02
2023-04-22T03:15:51.512Z,14.07
2023-04-22T03:17:55.054Z,14.82
2023-04-22T03:20:00.972Z,14.45
2023-04-22T03:22:03.898Z,14.85
2023-04-22T03:24:07.736Z,15.60
2023-04-22T03:26:12.354Z,12.27
2023-04-22T03:28:16.246Z,12.32
2023-04-22T03:30:19.278Z,11.27
2023-04-22T03:32:23.574Z,11.73
2023-04-22T03:34:37.413Z,11.52
2023-04-22T03:36:45.028Z,12.30
2023-04-22T03:38:48.554Z,12.68
2023-04-22T03:40:52.355Z,12.55
2023-04-22T03:43:16.925Z,12.93
2023-04-22T03:45:27.816Z,13.45
2023-04-22T03:47:51.067Z,13.57
2023-04-22T03:49:59.445Z,13.35
2023-04-22T03:52:04.259Z,13.60
2023-04-22T03:54:09.524Z,16.02
2023-04-22T03:56:17.257Z,15.07
2023-04-22T03:58:22.232Z,15.73
2023-04-22T04:00:26.833Z,15.35
2023-04-22T04:02:43.151Z,14.98
2023-04-22T04:04:51.473Z,13.82
2023-04-22T04:06:55.262Z,14.88
2023-04-22T04:08:59.883Z,17.30
2023-04-22T04:11:03.328Z,15.70
2023-04-22T04:13:06.644Z,16.90
2023-04-22T04:15:21.673Z,15.65
2023-04-22T04:17:26.408Z,14.07
2023-04-22T04:19:30.402Z,13.75
2023-04-22T04:21:34.414Z,13.98
2023-04-22T04:23:38.254Z,14.55
2023-04-22T04:25:43.230Z,15.40
2023-04-22T04:27:50.638Z,14.65
2023-04-22T04:29:56.315Z,14.88
2023-04-22T04:32:25.866Z,16.90
2023-04-22T04:34:29.191Z,15.85
2023-04-22T04:36:33.997Z,14.98
2023-04-22T04:38:48.330Z,15.55
2023-04-22T04:40:54.053Z,16.75
2023-04-22T04:43:02.859Z,17.75
2023-04-22T04:45:12.239Z,17.00
2023-04-22T04:47:16.341Z,16.73
2023-04-22T04:49:21.120Z,16.75
2023-04-22T04:51:32.971Z,16.17
2023-04-22T04:53:37.632Z,14.20
2023-04-22T04:55:40.555Z,15.02
2023-04-22T04:57:52.467Z,15.32
2023-04-22T04:59:55.469Z,15.45
2023-04-22T05:01:58.670Z,16.05
2023-04-22T05:04:02.181Z,15.30
2023-04-22T05:06:05.913Z,16.63
2023-04-22T05:08:10.552Z,16.13
2023-04-22T05:10:16.203Z,14.85
2023-04-22T05:12:19.436Z,16.13
2023-04-22T05:14:23.928Z,16.10
2023-04-22T05:16:27.751Z,17.20
2023-04-22T05:18:31.497Z,17.02
2023-04-22T05:20:38.195Z,17.20
2023-04-22T05:22:46.137Z,16.35
2023-04-22T05:24:50.498Z,17.25
2023-04-22T05:26:53.989Z,16.88
2023-04-22T05:28:56.854Z,17.38
2023-04-22T05:31:01.314Z,17.00
2023-04-22T05:33:05.966Z,16.05
2023-04-22T05:35:10.535Z,16.58
2023-04-22T05:37:13.526Z,17.38
2023-04-22T05:39:20.349Z,17.30
2023-04-22T05:41:24.340Z,17.30
2023-04-22T05:43:27.245Z,18.90
2023-04-22T05:45:45.344Z,17.45
2023-04-22T05:47:52.481Z,17.95
2023-04-22T05:49:56.165Z,17.40
2023-04-22T05:52:13.305Z,17.50
2023-04-22T05:54:29.664Z,17.63
2023-04-22T05:56:32.972Z,17.45
2023-04-22T05:58:36.027Z,19.17
2023-04-22T06:00:46.976Z,17.65
2023-04-22T06:03:08.608Z,17.75
2023-04-22T06:05:12.060Z,17.75
2023-04-22T06:07:15.005Z,20.10
2023-04-22T06:09:17.973Z,18.77
2023-04-22T06:11:20.987Z,19.67
2023-04-22T06:13:23.985Z,18.35
2023-04-22T06:15:28.072Z,20.25
2023-04-22T06:17:31.749Z,21.33
2023-04-22T06:19:37.722Z,21.83
2023-04-22T06:21:42.482Z,21.63
2023-04-22T06:23:45.482Z,22.02
2023-04-22T06:25:48.498Z,22.20
2023-04-22T06:27:52.493Z,21.80
2023-04-22T06:29:57.765Z,20.15
2023-04-22T06:32:00.686Z,22.35
2023-04-22T06:34:04.529Z,23.73
2023-04-22T06:36:09.374Z,22.20
2023-04-22T06:38:13.509Z,20.98
2023-04-22T06:40:28.399Z,23.92
2023-04-22T06:42:51.683Z,21.75
2023-04-22T06:45:16.532Z,22.30
2023-04-22T06:47:40.364Z,22.80
2023-04-22T06:49:46.028Z,22.70
2023-04-22T06:52:16.801Z,22.63
2023-04-22T06:54:21.036Z,21.13
2023-04-22T06:56:24.068Z,21.80
2023-04-22T06:58:27.150Z,21.15
2023-04-22T07:00:30.349Z,20.23
2023-04-22T07:02:34.919Z,20.92
2023-04-22T07:04:38.162Z,20.17
2023-04-22T07:06:43.351Z,21.55
2023-04-22T07:08:47.916Z,20.27
2023-04-22T07:10:51.440Z,20.17
2023-04-22T07:13:08.640Z,20.75
2023-04-22T07:15:12.015Z,20.00
2023-04-22T07:17:15.016Z,20.80
2023-04-22T07:19:17.990Z,20.00
2023-04-22T07:21:20.916Z,19.25
2023-04-22T07:23:24.269Z,18.05
2023-04-22T07:25:28.720Z,18.25
2023-04-22T07:27:31.868Z,17.50
2023-04-22T07:29:34.839Z,16.23
2023-04-22T07:31:37.921Z,16.70
2023-04-22T07:33:40.880Z,16.48
2023-04-22T07:35:43.971Z,13.93
2023-04-22T07:37:46.906Z,16.05
2023-04-22T07:39:49.780Z,14.98
2023-04-22T07:41:56.850Z,14.95
2023-04-22T07:44:00.287Z,16.00
2023-04-22T07:46:03.763Z,14.90
2023-04-22T07:48:06.788Z,14.93
2023-04-22T07:50:10.612Z,14.27
2023-04-22T07:52:13.546Z,13.43
2023-04-22T07:54:16.355Z,13.15
2023-04-22T07:56:19.374Z,14.60
2023-04-22T07:58:24.147Z,12.48
2023-04-22T08:00:27.262Z,13.13
2023-04-22T08:02:30.484Z,13.00
2023-04-22T08:04:33.755Z,13.00
2023-04-22T08:06:36.772Z,12.48
2023-04-22T08:08:40.128Z,12.05
2023-04-22T08:10:43.232Z,12.43
2023-04-22T08:12:46.555Z,13.25
2023-04-22T08:14:51.545Z,11.93
2023-04-22T08:16:54.777Z,13.05
2023-04-22T08:18:58.249Z,9.40
2023-04-22T08:21:01.296Z,9.30
2023-04-22T08:23:04.192Z,10.25
2023-04-22T08:25:08.813Z,10.48
2023-04-22T08:27:11.863Z,10.00
2023-04-22T08:29:15.084Z,7.60
2023-04-22T08:31:19.795Z,8.02
2023-04-22T08:33:22.729Z,8.27
2023-04-22T08:35:25.970Z,8.00
2023-04-22T08:37:30.197Z,7.22
2023-04-22T08:39:33.305Z,8.73
2023-04-22T08:41:37.295Z,8.63
2023-04-22T08:43:40.344Z,8.77
2023-04-22T08:45:43.724Z,8.45
2023-04-22T08:47:49.027Z,8.68
2023-04-22T08:49:53.809Z,9.18
2023-04-22T08:51:57.197Z,7.57
2023-04-22T08:54:01.249Z,6.63
2023-04-22T08:56:04.588Z,7.97
2023-04-22T08:58:08.047Z,9.13
2023-04-22T09:00:11.780Z,10.23
2023-04-22T09:02:19.746Z,9.77
2023-04-22T09:04:24.664Z,9.43
2023-04-22T09:06:27.825Z,10.82
2023-04-22T09:08:31.814Z,9.63
2023-04-22T09:10:37.806Z,10.50
2023-04-22T09:12:41.807Z,9.13
2023-04-22T09:14:45.891Z,8.98
2023-04-22T09:16:49.323Z,9.77
2023-04-22T09:18:52.509Z,9.15
2023-04-22T09:20:57.782Z,8.75
2023-04-22T09:23:05.537Z,9.85
2023-04-22T09:25:16.615Z,7.95
2023-04-22T09:27:20.385Z,6.55
2023-04-22T09:29:23.334Z,6.93
2023-04-22T09:31:26.480Z,6.97
2023-04-22T09:33:31.213Z,6.07
2023-04-22T09:35:35.762Z,5.68
2023-04-22T09:37:48.893Z,6.95
2023-04-22T09:39:53.253Z,7.22
2023-04-22T09:41:56.960Z,7.47
2023-04-22T09:44:01.029Z,7.32
2023-04-22T09:46:04.142Z,7.50
2023-04-22T09:48:09.724Z,6.88
2023-04-22T09:52:25.518Z,8.15
2023-04-22T09:54:30.011Z,8.18
2023-04-22T09:56:43.956Z,8.52
2023-04-22T09:58:53.612Z,8.05
2023-04-22T10:00:58.515Z,7.15
2023-04-22T10:03:02.243Z,8.55
2023-04-22T10:05:05.877Z,9.90
2023-04-22T10:07:09.047Z,8.55
2023-04-22T10:09:12.890Z,7.53
2023-04-22T10:11:17.566Z,8.73
2023-04-22T10:13:20.463Z,8.18
2023-04-22T10:15:26.383Z,7.72
2023-04-22T10:17:32.582Z,8.80
2023-04-22T10:19:36.442Z,7.60
2023-04-22T10:21:42.123Z,9.40
2023-04-22T10:23:48.186Z,9.25
2023-04-22T10:25:54.433Z,8.00
2023-04-22T10:28:05.387Z,8.77
2023-04-22T10:30:10.328Z,8.93
2023-04-22T10:32:26.916Z,9.68
2023-04-22T10:34:32.721Z,10.80
2023-04-22T10:36:35.791Z,9.50
2023-04-22T10:38:39.804Z,10.93
2023-04-22T10:41:00.875Z,10.95
2023-04-22T10:43:05.220Z,10.93
2023-04-22T10:45:12.289Z,10.30
2023-04-22T10:47:26.555Z,11.25
2023-04-22T10:49:32.663Z,11.90
2023-04-22T10:51:41.971Z,11.27
2023-04-22T10:53:46.740Z,10.75
2023-04-22T10:55:52.085Z,11.00
2023-04-22T10:57:55.338Z,10.60
2023-04-22T11:00:03.046Z,12.35
2023-04-22T11:02:07.322Z,10.52
2023-04-22T11:04:24.395Z,10.63
2023-04-22T11:06:30.516Z,9.73
2023-04-22T11:08:33.498Z,10.98
2023-04-22T11:10:44.130Z,8.70
2023-04-22T11:12:50.526Z,9.65
2023-04-22T11:14:53.758Z,9.90
2023-04-22T11:16:58.224Z,11.48
2023-04-22T11:19:01.972Z,9.93
2023-04-22T11:21:06.814Z,9.48
2023-04-22T11:23:10.394Z,12.07
2023-04-22T11:25:13.413Z,9.63
2023-04-22T11:27:16.376Z,10.23
2023-04-22T11:29:19.633Z,9.25
2023-04-22T11:31:22.520Z,9.05
2023-04-22T11:33:27.204Z,9.02
2023-04-22T11:35:32.007Z,7.93
2023-04-22T11:37:41.342Z,9.90
2023-04-22T11:40:01.597Z,8.10
2023-04-22T11:42:07.280Z,9.27
2023-04-22T11:44:10.216Z,7.82
2023-04-22T11:46:13.146Z,7.32
2023-04-22T11:48:17.059Z,7.35
2023-04-22T11:50:23.306Z,8.20
2023-04-22T11:52:26.693Z,7.97
2023-04-22T11:54:34.534Z,8.98
2023-04-22T11:56:38.207Z,8.30
2023-04-22T11:58:42.245Z,7.53
2023-04-22T12:00:46.521Z,7.60
2023-04-22T12:02:57.660Z,7.80
2023-04-22T12:05:02.469Z,6.78
2023-04-22T12:07:07.970Z,6.05
2023-04-22T12:09:12.061Z,7.07
2023-04-22T12:11:16.770Z,7.22
2023-04-22T12:13:20.551Z,4.07
2023-04-22T12:15:24.622Z,5.47
2023-04-22T12:17:27.619Z,3.08
2023-04-22T12:19:30.768Z,6.43
2023-04-22T12:21:34.230Z,6.57
2023-04-22T12:23:43.902Z,5.45
2023-04-22T12:25:46.860Z,5.70
2023-04-22T12:27:49.925Z,6.32
2023-04-22T12:29:54.682Z,6.50
2023-04-22T12:31:57.652Z,5.75
2023-04-22T12:34:00.680Z,6.07
2023-04-22T12:36:04.633Z,6.43
2023-04-22T12:38:07.624Z,6.50
2023-04-22T12:40:12.640Z,6.53
2023-04-22T12:42:15.805Z,5.85
2023-04-22T12:44:18.829Z,5.72
2023-04-22T12:46:21.876Z,6.00
2023-04-22T12:48:24.890Z,4.93
2023-04-22T12:50:27.866Z,5.20
2023-04-22T12:52:31.555Z,4.93
2023-04-22T12:54:34.804Z,5.00
2023-04-22T12:56:39.196Z,5.50
2023-04-22T12:58:42.171Z,5.13
2023-04-22T13:00:45.105Z,5.20
2023-04-22T13:02:49.593Z,3.88
2023-04-22T13:04:52.731Z,4.63
2023-04-22T13:06:58.656Z,4.40
2023-04-22T13:09:01.722Z,4.57
2023-04-22T13:11:04.742Z,4.90
2023-04-22T13:15:16.456Z,4.95
2023-04-22T13:17:19.421Z,5.20
2023-04-22T13:19:24.364Z,4.55
2023-04-22T13:21:28.135Z,10.02
2023-04-22T13:23:31.281Z,5.97
2023-04-22T13:25:34.282Z,4.72
2023-04-22T13:27:37.410Z,4.68
2023-04-22T13:29:42.606Z,4.97
2023-04-22T13:31:45.985Z,5.13
2023-04-22T13:33:48.859Z,5.25
2023-04-22T13:35:52.135Z,4.72
2023-04-22T13:37:54.972Z,5.50
2023-04-22T13:39:57.951Z,9.23
2023-04-22T13:42:01.350Z,5.50
2023-04-22T13:44:04.844Z,5.55
2023-04-22T13:46:09.367Z,5.07
2023-04-22T13:48:12.453Z,4.67
2023-04-22T13:50:15.332Z,4.93
2023-04-22T13:52:18.132Z,4.50
2023-04-22T13:54:21.634Z,5.43
2023-04-22T13:56:27.816Z,4.90
2023-04-22T13:58:30.809Z,4.80
2023-04-22T14:00:34.573Z,4.80
2023-04-22T14:02:39.346Z,4.72
2023-04-22T14:04:42.331Z,4.38
2023-04-22T14:06:45.382Z,4.90
2023-04-22T14:08:48.396Z,4.80
2023-04-22T14:10:51.342Z,5.03
2023-04-22T14:12:54.282Z,5.10
2023-04-22T14:14:57.178Z,7.88
2023-04-22T14:17:00.726Z,6.68
2023-04-22T14:19:06.421Z,4.80
2023-04-22T14:21:09.888Z,6.55
2023-04-22T14:23:12.812Z,8.60
2023-04-22T14:25:16.360Z,9.00
2023-04-22T14:27:19.324Z,9.82
2023-04-22T14:29:22.637Z,9.82
2023-04-22T14:31:25.749Z,9.98
2023-04-22T14:33:29.672Z,11.50
2023-04-22T14:35:34.160Z,8.05
2023-04-22T14:37:37.102Z,8.45
2023-04-22T14:39:40.178Z,9.52
2023-04-22T14:41:43.503Z,9.25
2023-04-22T14:43:47.246Z,8.32
2023-04-22T14:45:50.262Z,9.35
2023-04-22T14:47:54.037Z,9.07
2023-04-22T14:49:57.074Z,8.77
2023-04-22T14:52:01.947Z,8.23
2023-04-22T14:54:05.420Z,7.88
2023-04-22T14:56:08.552Z,7.72
2023-04-22T14:58:11.571Z,8.93
2023-04-22T15:00:15.207Z,8.77
2023-04-22T15:02:18.429Z,7.43
2023-04-22T15:04:22.081Z,8.73
2023-04-22T15:06:25.341Z,7.70
2023-04-22T15:08:29.869Z,9.63
2023-04-22T15:10:33.160Z,9.97
2023-04-22T15:12:36.462Z,9.82
2023-04-22T15:14:39.843Z,14.13
2023-04-22T15:16:42.957Z,9.80
2023-04-22T15:18:45.877Z,8.85
2023-04-22T15:20:48.878Z,8.60
2023-04-22T15:22:52.372Z,8.93
2023-04-22T15:24:56.987Z,7.85
2023-04-22T15:27:00.428Z,9.15
2023-04-22T15:29:03.470Z,10.75
2023-04-22T15:31:07.080Z,9.07
2023-04-22T15:33:10.087Z,8.05
2023-04-22T15:35:13.291Z,8.82
2023-04-22T15:37:16.730Z,9.35
2023-04-22T15:39:20.441Z,8.60
2023-04-22T15:41:25.719Z,8.98
2023-04-22T15:43:28.659Z,8.57
2023-04-22T15:45:31.641Z,8.13
2023-04-22T15:47:36.725Z,7.20
2023-04-22T15:49:39.918Z,7.38
2023-04-22T15:51:43.539Z,7.40
2023-04-22T15:53:46.857Z,8.30
2023-04-22T15:55:49.840Z,8.38
2023-04-22T15:57:54.313Z,8.80
2023-04-22T16:00:09.359Z,8.83
2023-04-22T16:02:18.096Z,8.18
2023-04-22T16:04:21.639Z,8.02
2023-04-22T16:06:24.623Z,8.27
2023-04-22T16:08:27.737Z,8.65
2023-04-22T16:10:30.651Z,8.98
2023-04-22T16:12:34.343Z,7.95
2023-04-22T16:14:39.022Z,8.57
2023-04-22T16:16:42.629Z,8.02
2023-04-22T16:18:45.951Z,8.10
2023-04-22T16:20:49.252Z,7.65
2023-04-22T16:22:52.160Z,8.40
2023-04-22T16:24:55.072Z,8.02
2023-04-22T16:26:58.952Z,8.30
2023-04-22T16:29:02.221Z,8.57
2023-04-22T16:31:06.744Z,8.68
2023-04-22T16:33:10.516Z,8.02
2023-04-22T16:35:13.594Z,7.10
2023-04-22T16:37:16.661Z,7.30
2023-04-22T16:39:19.618Z,7.50
2023-04-22T16:41:22.607Z,8.02
2023-04-22T16:43:25.651Z,7.40
2023-04-22T16:45:28.599Z,7.53
2023-04-22T16:47:33.005Z,8.02
2023-04-22T16:49:36.160Z,7.45
2023-04-22T16:51:40.193Z,7.28
2023-04-22T16:53:43.262Z,7.70
2023-04-22T16:55:46.074Z,7.82
2023-04-22T16:57:50.981Z,7.07
2023-04-22T16:59:53.931Z,6.93
2023-04-22T17:01:57.054Z,7.70
2023-04-22T17:04:01.978Z,7.55
2023-04-22T17:06:05.352Z,7.20
2023-04-22T17:08:08.575Z,7.40
2023-04-22T17:10:11.662Z,7.55
2023-04-22T17:12:14.695Z,7.05
2023-04-22T17:14:17.723Z,6.80
2023-04-22T17:16:21.363Z,6.80
2023-04-22T17:18:24.485Z,7.05
2023-04-22T17:20:29.051Z,7.47
2023-04-22T17:22:32.165Z,7.68
2023-04-22T17:24:36.003Z,6.93
2023-04-22T17:26:40.007Z,7.78
2023-04-22T17:28:42.989Z,7.03
2023-04-22T17:30:45.973Z,7.82
2023-04-22T17:32:49.009Z,7.35
2023-04-22T17:34:51.992Z,7.82
2023-04-22T17:36:56.435Z,8.32
2023-04-22T17:38:59.684Z,8.20
2023-04-22T17:41:02.765Z,8.15
2023-04-22T17:43:05.604Z,7.70
2023-04-22T17:45:10.328Z,7.65
2023-04-22T17:47:13.263Z,7.75
2023-04-22T17:49:16.224Z,8.77
2023-04-22T17:51:19.157Z,13.48
2023-04-22T17:53:23.715Z,8.57
2023-04-22T17:55:26.789Z,7.80
2023-04-22T17:57:29.633Z,8.15
2023-04-22T17:59:32.591Z,7.93
2023-04-22T18:01:35.772Z,8.35
2023-04-22T18:03:38.897Z,8.30
2023-04-22T18:05:44.294Z,9.43
2023-04-22T18:07:47.315Z,8.82
2023-04-22T18:09:52.045Z,8.85
2023-04-22T18:11:58.594Z,8.67
2023-04-22T18:14:01.619Z,8.50
2023-04-22T18:16:05.088Z,8.10
2023-04-22T18:18:07.964Z,9.52
2023-04-22T18:20:18.142Z,9.25
2023-04-22T18:22:22.071Z,8.43
2023-04-22T18:24:25.024Z,7.90
2023-04-22T18:26:29.611Z,8.48
2023-04-22T18:28:32.515Z,8.60
2023-04-22T18:30:35.506Z,7.57
2023-04-22T18:32:38.933Z,7.63
2023-04-22T18:34:42.371Z,8.02
2023-04-22T18:36:45.913Z,7.53
2023-04-22T18:38:48.797Z,7.32
2023-04-22T18:40:51.696Z,8.48
2023-04-22T18:42:56.532Z,7.70
2023-04-22T18:44:59.531Z,7.75
2023-04-22T18:47:02.728Z,7.72
2023-04-22T18:49:05.732Z,7.47
2023-04-22T18:51:08.792Z,8.20
2023-04-22T18:53:11.828Z,7.78
2023-04-22T18:55:14.808Z,7.78
2023-04-22T18:57:17.891Z,7.88
2023-04-22T18:59:22.460Z,8.50
2023-04-22T19:01:25.498Z,8.30
2023-04-22T19:03:28.684Z,8.27
2023-04-22T19:05:31.774Z,8.02
2023-04-22T19:07:34.743Z,7.88
2023-04-22T19:09:37.734Z,8.18
2023-04-22T19:11:41.033Z,7.82
2023-04-22T19:13:44.239Z,9.10
2023-04-22T19:15:48.823Z,9.07
2023-04-22T19:17:51.734Z,8.75
2023-04-22T19:19:55.084Z,8.18
2023-04-22T19:21:57.871Z,8.50
2023-04-22T19:24:01.094Z,8.85
2023-04-22T19:26:04.688Z,8.65
2023-04-22T19:28:07.697Z,9.07
2023-04-22T19:30:12.118Z,8.70
2023-04-22T19:32:17.209Z,9.32
2023-04-22T19:34:20.532Z,8.57
2023-04-22T19:36:23.729Z,9.30
2023-04-22T19:38:26.636Z,8.65
2023-04-22T19:40:29.772Z,9.07
2023-04-22T19:42:32.831Z,9.30
2023-04-22T19:44:36.551Z,9.35
2023-04-22T19:46:39.629Z,9.82
2023-04-22T19:48:44.581Z,9.20
2023-04-22T19:50:49.163Z,8.80
2023-04-22T19:52:58.323Z,8.70
2023-04-22T19:55:07.553Z,9.82
2023-04-22T19:57:11.923Z,9.55
2023-04-22T19:59:15.240Z,12.85
2023-04-22T20:01:18.529Z,12.02
2023-04-22T20:03:22.887Z,10.63
2023-04-22T20:05:28.631Z,9.80
2023-04-22T20:07:33.106Z,9.73
2023-04-22T20:09:37.322Z,9.85
2023-04-22T20:11:42.137Z,13.68
2023-04-22T20:13:47.397Z,14.15
2023-04-22T20:15:51.381Z,13.88
2023-04-22T20:17:55.431Z,15.57
2023-04-22T20:19:58.794Z,13.88
2023-04-22T20:22:05.441Z,14.90
2023-04-22T20:24:12.064Z,18.88
2023-04-22T20:26:19.884Z,17.40
2023-04-22T20:28:23.236Z,15.00
2023-04-22T20:30:27.158Z,13.57
2023-04-22T20:32:31.784Z,20.30
2023-04-22T20:34:36.344Z,12.50
2023-04-22T20:36:39.878Z,12.17
2023-04-22T20:38:48.932Z,13.98
2023-04-22T20:40:53.705Z,13.18
2023-04-22T20:43:01.159Z,20.50
2023-04-22T20:45:05.563Z,15.75
2023-04-22T20:47:08.735Z,14.35
2023-04-22T20:49:12.186Z,15.05
2023-04-22T20:51:15.340Z,12.52
2023-04-22T20:53:18.296Z,17.77
2023-04-22T20:55:22.853Z,18.63
2023-04-22T20:57:25.918Z,22.10
2023-04-22T20:59:28.746Z,20.30
2023-04-22T21:01:32.039Z,17.67
2023-04-22T21:03:37.681Z,17.83
2023-04-22T21:05:43.902Z,20.75
2023-04-22T21:07:58.756Z,21.30
2023-04-22T21:10:02.135Z,20.73
2023-04-22T21:12:07.687Z,20.48
2023-04-22T21:14:11.994Z,21.35
2023-04-22T21:16:18.824Z,22.23
2023-04-22T21:18:24.159Z,23.15
2023-04-22T21:20:29.180Z,21.75
2023-04-22T21:22:33.121Z,19.25
2023-04-22T21:24:36.648Z,20.08
2023-04-22T21:26:40.452Z,18.45
2023-04-22T21:28:45.388Z,19.02
2023-04-22T21:30:48.877Z,18.13
2023-04-22T21:32:51.886Z,19.02
2023-04-22T21:34:55.123Z,19.00
2023-04-22T21:36:58.062Z,18.02
2023-04-22T21:39:03.020Z,18.23
2023-04-22T21:41:06.431Z,19.40
2023-04-22T21:43:09.367Z,17.65
2023-04-22T21:45:13.970Z,18.40
2023-04-22T21:47:17.150Z,17.30
2023-04-22T21:49:21.020Z,18.00
2023-04-22T21:51:23.989Z,17.08
2023-04-22T21:53:27.191Z,17.80
2023-04-22T21:55:30.185Z,17.45
2023-04-22T21:57:33.190Z,17.40
2023-04-22T21:59:36.231Z,18.02
2023-04-22T22:01:41.031Z,18.35
2023-04-22T22:03:44.015Z,17.95
2023-04-22T22:05:47.091Z,17.17
2023-04-22T22:07:49.995Z,16.98
2023-04-22T22:09:53.281Z,16.55
2023-04-22T22:11:56.340Z,17.27
2023-04-22T22:13:59.734Z,18.00
2023-04-22T22:16:02.710Z,19.52
2023-04-22T22:18:07.720Z,19.50
2023-04-22T22:20:12.873Z,18.20
2023-04-22T22:22:15.951Z,19.25
2023-04-22T22:24:18.844Z,20.70
2023-04-22T22:26:21.828Z,19.73
2023-04-22T22:28:24.952Z,19.83
2023-04-22T22:30:27.974Z,21.23
2023-04-22T22:32:31.316Z,19.75
2023-04-22T22:34:35.800Z,21.95
2023-04-22T22:36:38.833Z,23.92
2023-04-22T22:38:41.884Z,24.23
2023-04-22T22:40:44.812Z,24.42
2023-04-22T22:42:47.942Z,23.52
2023-04-22T22:44:50.902Z,23.55
2023-04-22T22:46:53.896Z,22.85
2023-04-22T22:48:56.869Z,28.27
2023-04-22T22:51:02.120Z,29.85
2023-04-22T22:53:05.350Z,30.65
2023-04-22T22:55:09.077Z,30.65
2023-04-22T22:57:12.734Z,27.27
2023-04-22T22:59:15.741Z,28.23
2023-04-22T23:01:18.659Z,24.90
2023-04-22T23:03:21.773Z,24.88
2023-04-22T23:05:24.800Z,20.75
2023-04-22T23:07:29.153Z,24.50
2023-04-22T23:09:32.133Z,24.50
2023-04-22T23:11:35.074Z,24.58
2023-04-22T23:13:38.096Z,22.92
2023-04-22T23:15:41.165Z,22.67
2023-04-22T23:17:44.291Z,21.75
2023-04-22T23:19:48.103Z,22.58
2023-04-22T23:21:51.294Z,23.30
2023-04-22T23:23:57.284Z,22.13
2023-04-22T23:26:03.866Z,22.15
2023-04-22T23:28:07.396Z,22.40
2023-04-22T23:30:11.180Z,21.60
2023-04-22T23:32:16.584Z,21.77
2023-04-22T23:36:23.635Z,22.65
2023-04-22T23:38:27.806Z,21.50
2023-04-22T23:40:32.273Z,21.65
2023-04-22T23:42:35.217Z,20.58
2023-04-22T23:44:38.241Z,21.42
2023-04-22T23:46:41.498Z,22.08
2023-04-22T23:48:44.495Z,23.90
2023-04-22T23:50:47.581Z,21.38
2023-04-22T23:52:50.613Z,22.20
2023-04-22T23:54:55.370Z,22.55
2023-04-22T23:57:01.589Z,22.33
2023-04-22T23:59:05.102Z,21.75
